Time;durP1;ratioP1;P1;durP2;ratioP2;P2;SDS_P1;SDS_P2;PMS_P1;PMS_P2;Temp;Humidity;BMP_temperature;BMP_pressure;BME280_temperature;BME280_humidity;BME280_pressure;Samples;Min_cycle;Max_cycle;Signal;HPM_P1;HPM_P2
2021/07/05 00:00:17;;;;;;;3.38;1.90;;;17.80;99.90;;;;;;2106491;28;20012;-67
2021/07/05 00:01:17;;;;;;;2.83;1.95;;;17.80;99.90;;;;;;2106132;28;20490;-67
2021/07/05 00:02:18;;;;;;;3.45;2.08;;;17.80;99.90;;;;;;2106081;28;20093;-67
2021/07/05 00:03:18;;;;;;;3.47;2.08;;;17.80;99.90;;;;;;2106464;28;20020;-67
2021/07/05 00:04:19;;;;;;;2.85;2.13;;;17.80;99.90;;;;;;2106516;28;20106;-67
2021/07/05 00:05:21;;;;;;;3.13;2.03;;;17.70;99.90;;;;;;2106236;28;20076;-67
2021/07/05 00:06:22;;;;;;;2.53;1.70;;;17.70;99.90;;;;;;2106662;28;20459;-67
2021/07/05 00:07:24;;;;;;;2.15;1.83;;;17.70;99.90;;;;;;2106300;28;20024;-67
2021/07/05 00:08:24;;;;;;;2.38;1.95;;;17.70;99.90;;;;;;2106494;28;20418;-67
2021/07/05 00:09:25;;;;;;;5.25;2.00;;;17.70;99.90;;;;;;2106435;28;20024;-67
2021/07/05 00:10:27;;;;;;;2.20;2.00;;;17.70;99.90;;;;;;2106293;28;20027;-67
2021/07/05 00:11:28;;;;;;;2.53;1.85;;;17.70;99.90;;;;;;2105168;28;20030;-67
2021/07/05 00:12:28;;;;;;;4.25;2.20;;;17.70;99.90;;;;;;2106200;28;20036;-67
2021/07/05 00:13:30;;;;;;;3.33;2.20;;;17.70;99.90;;;;;;2106361;28;20502;-67
2021/07/05 00:14:32;;;;;;;2.63;2.40;;;17.70;99.90;;;;;;2106613;28;20087;-67
2021/07/05 00:15:34;;;;;;;4.07;2.25;;;17.70;99.90;;;;;;2106186;28;20030;-67
2021/07/05 00:16:37;;;;;;;3.10;2.50;;;17.70;99.90;;;;;;2106402;28;20020;-68
2021/07/05 00:17:37;;;;;;;3.85;2.55;;;17.70;99.90;;;;;;2106419;28;20113;-67
2021/07/05 00:18:38;;;;;;;2.42;1.92;;;17.60;99.90;;;;;;2106444;28;20032;-67
2021/07/05 00:19:38;;;;;;;4.97;2.22;;;17.60;99.90;;;;;;2106280;28;20031;-67
2021/07/05 00:20:43;;;;;;;2.95;2.00;;;17.60;99.90;;;;;;2105976;28;20055;-67
2021/07/05 00:21:43;;;;;;;1.98;1.88;;;17.70;99.90;;;;;;2105665;28;20027;-67
2021/07/05 00:22:44;;;;;;;2.25;2.13;;;17.60;99.90;;;;;;2106460;28;20020;-67
2021/07/05 00:23:45;;;;;;;7.18;2.15;;;17.60;99.90;;;;;;2106047;28;20406;-67
2021/07/05 00:24:45;;;;;;;2.33;2.13;;;17.60;99.90;;;;;;2106444;28;20420;-67
2021/07/05 00:25:46;;;;;;;3.38;2.20;;;17.60;99.90;;;;;;2105980;28;20780;-67
2021/07/05 00:26:46;;;;;;;6.75;2.15;;;17.60;99.90;;;;;;2106246;28;20121;-67
2021/07/05 00:27:47;;;;;;;3.00;2.15;;;17.60;99.90;;;;;;2106257;28;20016;-67
2021/07/05 00:28:48;;;;;;;2.53;1.92;;;17.60;99.90;;;;;;2106508;28;20020;-67
2021/07/05 00:29:48;;;;;;;1.95;1.85;;;17.60;99.90;;;;;;2106275;28;20035;-67
2021/07/05 00:30:49;;;;;;;3.70;2.03;;;17.60;99.90;;;;;;2106207;28;20111;-67
2021/07/05 00:31:49;;;;;;;4.60;2.03;;;17.60;99.90;;;;;;2105455;28;20024;-67
2021/07/05 00:32:51;;;;;;;3.40;2.10;;;17.50;99.90;;;;;;2106365;28;20430;-67
2021/07/05 00:33:52;;;;;;;3.92;2.47;;;17.50;99.90;;;;;;2106261;28;20493;-67
2021/07/05 00:34:52;;;;;;;2.28;2.10;;;17.50;99.90;;;;;;2106187;28;20386;-67
2021/07/05 00:35:53;;;;;;;2.25;2.05;;;17.50;99.90;;;;;;2106068;28;20118;-67
2021/07/05 00:36:53;;;;;;;3.10;2.10;;;17.50;99.90;;;;;;2106212;28;20023;-67
2021/07/05 00:37:55;;;;;;;2.55;2.13;;;17.50;99.90;;;;;;2106281;28;20024;-67
2021/07/05 00:38:56;;;;;;;2.42;1.85;;;17.50;99.90;;;;;;2106141;28;20108;-67
2021/07/05 00:39:56;;;;;;;2.55;2.10;;;17.50;99.90;;;;;;2105854;28;20032;-67
2021/07/05 00:40:57;;;;;;;4.38;2.55;;;17.50;99.90;;;;;;2106006;28;20028;-67
2021/07/05 00:41:58;;;;;;;2.50;2.08;;;17.50;99.90;;;;;;2105727;28;20020;-68
2021/07/05 00:42:58;;;;;;;3.67;2.30;;;17.50;99.90;;;;;;2106023;28;20099;-68
2021/07/05 00:43:59;;;;;;;2.63;1.80;;;17.50;99.90;;;;;;2106380;28;20056;-67
2021/07/05 00:45:00;;;;;;;4.60;2.05;;;17.50;99.90;;;;;;2106031;28;20028;-67
2021/07/05 00:46:01;;;;;;;4.82;1.90;;;17.50;99.90;;;;;;2106185;28;20024;-67
2021/07/05 00:47:02;;;;;;;4.57;2.00;;;17.50;99.90;;;;;;2105217;28;20024;-67
2021/07/05 00:48:03;;;;;;;1.83;1.73;;;17.50;99.90;;;;;;2105571;28;20043;-67
2021/07/05 00:49:04;;;;;;;2.20;2.00;;;17.50;99.90;;;;;;2106087;28;20028;-67
2021/07/05 00:50:07;;;;;;;3.58;1.80;;;17.50;99.90;;;;;;2106011;28;20043;-67
2021/07/05 00:51:08;;;;;;;2.35;2.15;;;17.50;99.90;;;;;;2105785;28;20052;-67
2021/07/05 00:52:09;;;;;;;6.05;2.30;;;17.50;99.90;;;;;;2105634;28;20035;-67
2021/07/05 00:53:09;;;;;;;2.00;1.90;;;17.50;99.90;;;;;;2105861;28;20031;-67
2021/07/05 00:54:10;;;;;;;3.08;1.85;;;17.50;99.90;;;;;;2106288;28;20052;-67
2021/07/05 00:55:12;;;;;;;2.60;1.65;;;17.50;99.90;;;;;;2106035;28;20104;-67
2021/07/05 00:56:13;;;;;;;4.60;1.80;;;17.50;99.90;;;;;;2106143;28;20020;-67
2021/07/05 00:57:20;;;;;;;3.88;2.30;;;17.50;99.90;;;;;;2105904;28;20024;-67
2021/07/05 00:58:21;;;;;;;4.00;2.50;;;17.40;99.90;;;;;;2106081;28;20035;-67
2021/07/05 00:59:22;;;;;;;3.45;1.95;;;17.40;99.90;;;;;;2105787;28;20055;-68
2021/07/05 01:00:25;;;;;;;4.40;1.90;;;17.40;99.90;;;;;;2106606;28;20036;-68
2021/07/05 01:01:25;;;;;;;2.38;1.90;;;17.40;99.90;;;;;;2105796;28;20024;-68
2021/07/05 01:02:27;;;;;;;3.15;2.00;;;17.40;99.90;;;;;;2105803;28;20039;-68
2021/07/05 01:03:28;;;;;;;3.33;2.00;;;17.40;99.90;;;;;;2105004;28;20024;-68
2021/07/05 01:04:28;;;;;;;1.90;1.48;;;17.40;99.90;;;;;;2105649;28;20028;-68
2021/07/05 01:05:29;;;;;;;2.00;1.88;;;17.40;99.90;;;;;;2105823;28;20031;-68
2021/07/05 01:06:39;;;;;;;3.33;1.85;;;17.40;99.90;;;;;;2105837;28;20032;-68
2021/07/05 01:07:41;;;;;;;2.20;1.63;;;17.40;99.90;;;;;;2104189;28;20031;-68
2021/07/05 01:08:42;;;;;;;2.60;1.80;;;17.30;99.90;;;;;;2106092;28;20095;-68
2021/07/05 01:09:43;;;;;;;2.38;1.83;;;17.30;99.90;;;;;;2105909;28;20027;-68
2021/07/05 01:10:43;;;;;;;1.73;1.40;;;17.30;99.90;;;;;;2105861;28;20016;-68
2021/07/05 01:11:44;;;;;;;1.83;1.73;;;17.30;99.90;;;;;;2105347;28;20024;-68
2021/07/05 01:12:45;;;;;;;1.85;1.70;;;17.30;99.90;;;;;;2105953;28;20095;-68
2021/07/05 01:13:47;;;;;;;2.78;1.90;;;17.30;99.90;;;;;;2105861;28;20016;-68
2021/07/05 01:14:47;;;;;;;2.03;1.65;;;17.40;99.90;;;;;;2106002;28;20028;-68
2021/07/05 01:15:48;;;;;;;3.00;1.95;;;17.30;99.90;;;;;;2105827;28;20475;-68
2021/07/05 01:16:48;;;;;;;7.43;1.80;;;17.30;99.90;;;;;;2106056;28;20111;-68
2021/07/05 01:17:50;;;;;;;2.42;1.90;;;17.30;99.90;;;;;;2105819;28;20055;-68
2021/07/05 01:18:52;;;;;;;6.63;2.50;;;17.30;99.90;;;;;;2105356;28;20031;-68
2021/07/05 01:19:53;;;;;;;4.32;1.98;;;17.30;99.90;;;;;;2105418;28;20034;-68
2021/07/05 01:20:57;;;;;;;3.42;1.90;;;17.30;99.90;;;;;;2106058;28;20016;-68
2021/07/05 01:21:57;;;;;;;2.33;1.80;;;17.20;99.90;;;;;;2104780;28;20024;-68
2021/07/05 01:22:58;;;;;;;5.10;2.17;;;17.20;99.90;;;;;;2105808;28;20028;-68
2021/07/05 01:23:59;;;;;;;4.22;2.00;;;17.20;99.90;;;;;;2105017;28;20958;-68
2021/07/05 01:25:00;;;;;;;2.90;2.10;;;17.20;99.90;;;;;;2105176;28;20024;-68
2021/07/05 01:26:01;;;;;;;2.40;2.00;;;17.20;99.90;;;;;;2105662;28;20024;-68
2021/07/05 01:27:03;;;;;;;2.70;1.80;;;17.20;99.90;;;;;;2106148;28;20024;-68
2021/07/05 01:28:04;;;;;;;2.78;1.65;;;17.20;99.90;;;;;;2105585;28;20028;-68
2021/07/05 01:29:05;;;;;;;2.35;1.70;;;17.20;99.90;;;;;;2106095;28;20393;-68
2021/07/05 01:30:07;;;;;;;2.60;1.85;;;17.20;99.90;;;;;;2105653;28;20030;-68
2021/07/05 01:31:08;;;;;;;3.13;2.20;;;17.20;99.90;;;;;;2106160;28;20061;-68
2021/07/05 01:32:09;;;;;;;2.38;1.70;;;17.20;99.90;;;;;;2104951;28;20540;-68
2021/07/05 01:33:10;;;;;;;3.47;1.98;;;17.20;99.90;;;;;;2105059;28;20070;-68
2021/07/05 01:34:11;;;;;;;2.25;1.92;;;17.20;99.90;;;;;;2105162;28;20418;-68
2021/07/05 01:35:12;;;;;;;4.60;2.00;;;17.20;99.90;;;;;;2106097;28;20020;-68
2021/07/05 01:36:13;;;;;;;1.67;1.58;;;17.20;99.90;;;;;;2105543;28;20032;-68
2021/07/05 01:37:14;;;;;;;2.15;1.90;;;17.20;99.90;;;;;;2105606;28;20460;-68
2021/07/05 01:38:19;;;;;;;5.60;1.75;;;17.20;99.90;;;;;;2105784;28;20095;-68
2021/07/05 01:39:20;;;;;;;3.08;1.73;;;17.20;99.90;;;;;;2106174;28;20464;-68
2021/07/05 01:40:21;;;;;;;5.15;1.70;;;17.20;99.90;;;;;;2105595;28;20034;-68
2021/07/05 01:41:22;;;;;;;2.38;1.98;;;17.20;99.90;;;;;;2105959;28;20035;-68
2021/07/05 01:42:22;;;;;;;4.32;1.77;;;17.20;99.90;;;;;;2105389;28;20032;-68
2021/07/05 01:43:24;;;;;;;3.53;1.92;;;17.20;99.90;;;;;;2106027;28;20028;-69
2021/07/05 01:44:24;;;;;;;3.92;1.80;;;17.20;99.90;;;;;;2105698;28;20020;-68
2021/07/05 01:45:29;;;;;;;1.42;1.27;;;17.20;99.90;;;;;;2105974;28;20028;-68
2021/07/05 01:46:30;;;;;;;3.03;2.15;;;17.20;99.90;;;;;;2105690;28;20028;-68
2021/07/05 01:47:30;;;;;;;3.25;1.70;;;17.20;99.90;;;;;;2105831;28;20031;-68
2021/07/05 01:48:31;;;;;;;2.42;1.95;;;17.20;99.90;;;;;;2105502;28;20467;-68
2021/07/05 01:49:32;;;;;;;3.03;1.85;;;17.20;99.90;;;;;;2105878;28;20103;-68
2021/07/05 01:50:33;;;;;;;3.03;2.03;;;17.20;99.90;;;;;;2105866;28;20032;-68
2021/07/05 01:51:34;;;;;;;2.90;1.80;;;17.20;99.90;;;;;;2105411;28;20020;-68
2021/07/05 01:52:34;;;;;;;3.47;1.77;;;17.20;99.90;;;;;;2105452;28;20027;-68
2021/07/05 01:53:35;;;;;;;10.05;2.10;;;17.20;99.90;;;;;;2105940;28;20509;-68
2021/07/05 01:54:35;;;;;;;1.55;1.45;;;17.20;99.90;;;;;;2105890;28;20020;-68
2021/07/05 01:55:38;;;;;;;4.05;2.05;;;17.20;99.90;;;;;;2105473;28;20103;-68
2021/07/05 01:56:40;;;;;;;6.30;1.67;;;17.20;99.90;;;;;;2105830;28;20170;-68
2021/07/05 01:57:40;;;;;;;3.15;2.03;;;17.20;99.90;;;;;;2105558;28;20028;-68
2021/07/05 01:58:41;;;;;;;2.72;1.60;;;17.20;99.90;;;;;;2105887;28;20024;-68
2021/07/05 01:59:41;;;;;;;2.08;1.50;;;17.20;99.90;;;;;;2105728;28;20025;-68
2021/07/05 02:00:45;;;;;;;1.85;1.75;;;17.30;99.90;;;;;;2105815;28;20052;-68
2021/07/05 02:01:46;;;;;;;3.10;2.08;;;17.30;99.90;;;;;;2104308;28;20053;-68
2021/07/05 02:02:47;;;;;;;2.78;1.75;;;17.30;99.90;;;;;;2105201;28;20027;-68
2021/07/05 02:03:48;;;;;;;3.42;2.22;;;17.30;99.90;;;;;;2105370;28;20528;-68
2021/07/05 02:04:49;;;;;;;8.52;2.30;;;17.20;99.90;;;;;;2105132;28;20162;-68
2021/07/05 02:05:50;;;;;;;3.03;2.10;;;17.30;99.90;;;;;;2104942;28;20047;-68
2021/07/05 02:06:51;;;;;;;4.57;2.00;;;17.20;99.90;;;;;;2105684;28;20020;-68
2021/07/05 02:07:52;;;;;;;3.63;2.05;;;17.20;99.90;;;;;;2105537;28;20023;-68
2021/07/05 02:08:52;;;;;;;3.00;1.70;;;17.20;99.90;;;;;;2105833;28;20471;-68
2021/07/05 02:09:53;;;;;;;2.35;2.13;;;17.20;99.90;;;;;;2105768;28;20455;-68
2021/07/05 02:10:54;;;;;;;2.58;1.80;;;17.20;99.90;;;;;;2105888;28;20028;-68
2021/07/05 02:11:54;;;;;;;3.72;1.95;;;17.20;99.90;;;;;;2105119;28;20471;-68
2021/07/05 02:12:56;;;;;;;2.08;1.95;;;17.20;99.90;;;;;;2105939;28;20118;-68
2021/07/05 02:13:56;;;;;;;3.55;2.08;;;17.20;99.90;;;;;;2104566;28;20017;-68
2021/07/05 02:14:57;;;;;;;2.25;2.05;;;17.20;99.90;;;;;;2105053;28;20518;-68
2021/07/05 02:16:00;;;;;;;3.42;2.10;;;17.20;99.90;;;;;;2105487;28;20120;-68
2021/07/05 02:17:01;;;;;;;1.70;1.60;;;17.20;99.90;;;;;;2105893;28;20048;-68
2021/07/05 02:18:02;;;;;;;4.00;2.05;;;17.20;99.90;;;;;;2105617;28;20455;-68
2021/07/05 02:19:04;;;;;;;2.35;1.90;;;17.20;99.90;;;;;;2105811;28;20363;-68
2021/07/05 02:20:08;;;;;;;2.92;2.08;;;17.20;99.90;;;;;;2105562;28;20453;-68
2021/07/05 02:21:09;;;;;;;3.75;2.22;;;17.20;99.90;;;;;;2105943;28;20021;-68
2021/07/05 02:22:10;;;;;;;2.67;1.90;;;17.20;99.90;;;;;;2104993;28;20028;-68
2021/07/05 02:23:14;;;;;;;4.03;1.75;;;17.20;99.90;;;;;;2105600;28;20024;-68
2021/07/05 02:24:15;;;;;;;2.00;1.80;;;17.20;99.90;;;;;;2105432;28;20032;-68
2021/07/05 02:25:16;;;;;;;2.97;1.77;;;17.20;99.90;;;;;;2105824;28;20039;-68
2021/07/05 02:26:17;;;;;;;2.15;1.98;;;17.20;99.90;;;;;;2105275;28;20046;-68
2021/07/05 02:27:17;;;;;;;3.50;2.05;;;17.20;99.90;;;;;;2105807;28;20399;-68
2021/07/05 02:28:22;;;;;;;10.93;2.17;;;17.20;99.90;;;;;;2104747;28;20506;-68
2021/07/05 02:29:23;;;;;;;4.50;2.00;;;17.20;99.90;;;;;;2105291;28;20463;-68
2021/07/05 02:30:26;;;;;;;1.92;1.80;;;17.20;99.90;;;;;;2105607;28;20492;-68
2021/07/05 02:31:26;;;;;;;2.28;2.08;;;17.20;99.90;;;;;;2105330;28;20475;-68
2021/07/05 02:32:27;;;;;;;5.80;2.00;;;17.20;99.90;;;;;;2105311;28;20099;-68
2021/07/05 02:33:31;;;;;;;2.88;1.83;;;17.20;99.90;;;;;;2105575;28;20024;-68
2021/07/05 02:34:32;;;;;;;5.53;2.00;;;17.20;99.90;;;;;;2106130;28;20107;-68
2021/07/05 02:35:35;;;;;;;2.28;2.00;;;17.20;99.90;;;;;;2107221;28;20027;-68
2021/07/05 02:36:35;;;;;;;1.98;1.60;;;17.20;99.90;;;;;;2106823;28;20038;-68
2021/07/05 02:37:37;;;;;;;4.53;1.92;;;17.20;99.90;;;;;;2107381;28;20039;-68
2021/07/05 02:38:38;;;;;;;3.35;2.20;;;17.20;99.90;;;;;;2106084;28;20537;-68
2021/07/05 02:39:38;;;;;;;1.98;1.88;;;17.20;99.90;;;;;;2106610;28;20106;-68
2021/07/05 02:40:43;;;;;;;2.45;1.90;;;17.20;99.90;;;;;;2107194;28;20115;-68
2021/07/05 02:41:44;;;;;;;2.35;1.88;;;17.20;99.90;;;;;;2106733;28;20035;-68
2021/07/05 02:42:45;;;;;;;3.38;1.70;;;17.20;99.90;;;;;;2106813;28;20053;-68
2021/07/05 02:43:46;;;;;;;2.28;1.90;;;17.20;99.90;;;;;;2107185;28;20475;-68
2021/07/05 02:44:46;;;;;;;2.72;1.70;;;17.20;99.90;;;;;;2107065;28;20391;-68
2021/07/05 02:45:49;;;;;;;3.88;1.65;;;17.20;99.90;;;;;;2107126;28;20020;-68
2021/07/05 02:46:50;;;;;;;3.38;1.80;;;17.20;99.90;;;;;;2106878;28;20028;-68
2021/07/05 02:47:57;;;;;;;2.05;1.80;;;17.20;99.90;;;;;;2107059;28;20028;-68
2021/07/05 02:48:58;;;;;;;2.78;1.60;;;17.20;99.90;;;;;;2107095;28;20020;-68
2021/07/05 02:49:58;;;;;;;2.85;1.90;;;17.20;99.90;;;;;;2107293;28;20024;-68
2021/07/05 02:51:02;;;;;;;4.10;1.73;;;17.20;99.90;;;;;;2106714;28;20032;-68
2021/07/05 02:52:03;;;;;;;3.47;1.77;;;17.20;99.90;;;;;;2106427;28;20073;-68
2021/07/05 02:53:05;;;;;;;4.38;1.50;;;17.20;99.90;;;;;;2107031;28;20556;-68
2021/07/05 02:54:06;;;;;;;3.28;1.65;;;17.20;99.90;;;;;;2106982;28;20099;-68
2021/07/05 02:55:09;;;;;;;2.88;1.50;;;17.20;99.90;;;;;;2107012;28;20016;-68
2021/07/05 02:56:10;;;;;;;2.15;1.85;;;17.20;99.90;;;;;;2107031;28;20023;-68
2021/07/05 02:57:28;;;;;;;4.32;1.88;;;17.20;99.90;;;;;;2107081;28;20028;-68
2021/07/05 02:58:30;;;;;;;1.67;1.58;;;17.20;99.90;;;;;;2107273;28;20031;-68
2021/07/05 02:59:30;;;;;;;2.75;1.98;;;17.20;99.90;;;;;;2106693;28;20036;-68
2021/07/05 03:00:34;;;;;;;2.35;1.90;;;17.20;99.90;;;;;;2107129;28;20028;-68
2021/07/05 03:01:35;;;;;;;2.72;1.75;;;17.20;99.90;;;;;;2106197;28;20035;-68
2021/07/05 03:02:36;;;;;;;3.50;1.80;;;17.20;99.90;;;;;;2106711;28;20034;-69
2021/07/05 03:03:37;;;;;;;2.67;1.50;;;17.20;99.90;;;;;;2106860;28;20483;-68
2021/07/05 03:04:37;;;;;;;3.05;1.85;;;17.20;99.90;;;;;;2107148;28;20360;-68
2021/07/05 03:05:38;;;;;;;5.97;1.92;;;17.20;99.90;;;;;;2106973;28;20495;-68
2021/07/05 03:06:39;;;;;;;4.72;1.90;;;17.20;99.90;;;;;;2106953;28;20074;-68
2021/07/05 03:07:39;;;;;;;1.90;1.63;;;17.10;99.90;;;;;;2106068;28;20035;-68
2021/07/05 03:08:40;;;;;;;4.18;1.83;;;17.10;99.90;;;;;;2106270;28;20024;-68
2021/07/05 03:09:41;;;;;;;5.82;1.65;;;17.20;99.90;;;;;;2106935;28;20070;-68
2021/07/05 03:10:43;;;;;;;3.65;1.98;;;17.10;99.90;;;;;;2106732;28;20069;-68
2021/07/05 03:11:43;;;;;;;1.67;1.30;;;17.20;99.90;;;;;;2105909;28;20131;-68
2021/07/05 03:12:44;;;;;;;2.45;1.45;;;17.10;99.90;;;;;;2106995;28;20045;-68
2021/07/05 03:13:45;;;;;;;2.13;1.40;;;17.20;99.90;;;;;;2106871;28;20024;-68
2021/07/05 03:14:45;;;;;;;2.58;1.58;;;17.20;99.90;;;;;;2106246;28;20099;-68
2021/07/05 03:15:52;;;;;;;5.38;1.67;;;17.20;99.90;;;;;;2106433;28;20579;-68
2021/07/05 03:16:53;;;;;;;1.83;1.60;;;17.20;99.90;;;;;;2107010;28;20479;-68
2021/07/05 03:17:53;;;;;;;2.30;1.58;;;17.20;99.90;;;;;;2106972;28;20382;-68
2021/07/05 03:18:54;;;;;;;2.65;1.85;;;17.20;99.90;;;;;;2106731;28;20036;-68
2021/07/05 03:19:54;;;;;;;1.52;1.38;;;17.10;99.90;;;;;;2106938;28;20055;-68
2021/07/05 03:20:55;;;;;;;3.10;1.77;;;17.20;99.90;;;;;;2106012;28;20068;-68
2021/07/05 03:21:56;;;;;;;2.28;1.55;;;17.20;99.90;;;;;;2105506;28;20445;-68
2021/07/05 03:22:58;;;;;;;3.17;1.80;;;17.20;99.90;;;;;;2106724;28;20031;-68
2021/07/05 03:23:59;;;;;;;3.20;1.55;;;17.20;99.90;;;;;;2107002;28;20107;-68
2021/07/05 03:25:00;;;;;;;2.55;1.45;;;17.20;99.90;;;;;;2106721;28;20024;-68
2021/07/05 03:26:01;;;;;;;1.63;1.48;;;17.20;99.90;;;;;;2106831;28;20023;-68
2021/07/05 03:27:01;;;;;;;2.67;1.67;;;17.20;99.90;;;;;;2106507;28;20024;-68
2021/07/05 03:28:04;;;;;;;3.17;1.83;;;17.20;99.90;;;;;;2106869;28;20436;-68
2021/07/05 03:29:05;;;;;;;3.90;1.95;;;17.30;99.90;;;;;;2106599;28;20027;-68
2021/07/05 03:30:08;;;;;;;4.00;1.70;;;17.20;99.90;;;;;;2106707;28;20055;-68
2021/07/05 03:31:09;;;;;;;2.05;1.95;;;17.20;99.90;;;;;;2106597;28;20017;-68
2021/07/05 03:32:09;;;;;;;2.58;1.35;;;17.20;99.90;;;;;;2106230;28;20024;-68
2021/07/05 03:33:10;;;;;;;3.13;1.50;;;17.20;99.90;;;;;;2106830;28;20016;-68
2021/07/05 03:34:11;;;;;;;1.92;1.77;;;17.20;99.90;;;;;;2106712;28;20020;-68
2021/07/05 03:35:12;;;;;;;1.50;1.40;;;17.20;99.90;;;;;;2106650;28;20430;-68
2021/07/05 03:36:13;;;;;;;2.38;1.70;;;17.20;99.90;;;;;;2106770;28;20020;-68
2021/07/05 03:37:13;;;;;;;2.80;1.90;;;17.30;99.90;;;;;;2106644;28;20016;-68
2021/07/05 03:38:16;;;;;;;2.83;1.70;;;17.20;99.90;;;;;;2106541;28;20039;-68
2021/07/05 03:39:17;;;;;;;1.83;1.65;;;17.20;99.90;;;;;;2106556;28;20420;-68
2021/07/05 03:40:22;;;;;;;2.92;1.70;;;17.20;99.90;;;;;;2106821;28;20024;-68
2021/07/05 03:41:22;;;;;;;1.40;1.30;;;17.20;99.90;;;;;;2106412;28;20478;-68
2021/07/05 03:42:23;;;;;;;1.90;1.80;;;17.30;99.90;;;;;;2106393;28;20421;-68
2021/07/05 03:43:23;;;;;;;2.58;2.00;;;17.20;99.90;;;;;;2106406;28;20085;-68
2021/07/05 03:44:24;;;;;;;3.22;1.70;;;17.20;99.90;;;;;;2106826;28;20455;-68
2021/07/05 03:45:27;;;;;;;6.00;1.83;;;17.20;99.90;;;;;;2106526;28;20043;-68
2021/07/05 03:46:28;;;;;;;1.63;1.52;;;17.30;99.90;;;;;;2106674;28;20387;-68
2021/07/05 03:47:28;;;;;;;1.95;1.70;;;17.30;99.90;;;;;;2106407;28;20123;-68
2021/07/05 03:48:29;;;;;;;2.28;1.60;;;17.30;99.90;;;;;;2106771;28;20024;-68
2021/07/05 03:49:29;;;;;;;2.10;1.67;;;17.30;99.90;;;;;;2106137;28;20058;-68
2021/07/05 03:50:31;;;;;;;3.03;1.58;;;17.40;99.90;;;;;;2106657;28;20024;-68
2021/07/05 03:51:32;;;;;;;2.03;1.92;;;17.40;99.90;;;;;;2106026;28;20470;-68
2021/07/05 03:52:34;;;;;;;3.30;2.10;;;17.40;99.90;;;;;;2106659;28;20348;-68
2021/07/05 03:53:34;;;;;;;2.20;1.77;;;17.40;99.90;;;;;;2106216;28;20035;-68
2021/07/05 03:54:35;;;;;;;2.60;1.80;;;17.40;99.90;;;;;;2106565;28;20110;-68
2021/07/05 03:55:36;;;;;;;2.28;1.70;;;17.50;99.90;;;;;;2106307;28;20055;-68
2021/07/05 03:56:37;;;;;;;4.38;1.70;;;17.50;99.90;;;;;;2106786;28;20032;-68
2021/07/05 03:57:38;;;;;;;1.85;1.58;;;17.50;99.90;;;;;;2106229;28;20475;-68
2021/07/05 03:58:38;;;;;;;2.47;1.40;;;17.50;99.90;;;;;;2106609;28;20057;-68
2021/07/05 03:59:39;;;;;;;1.50;1.40;;;17.50;99.90;;;;;;2106540;28;20479;-68
2021/07/05 04:00:40;;;;;;;1.80;1.70;;;17.60;99.90;;;;;;2105934;28;20031;-68
2021/07/05 04:01:41;;;;;;;1.50;1.40;;;17.60;99.90;;;;;;2105488;28;20028;-68
2021/07/05 04:02:41;;;;;;;1.88;1.55;;;17.60;99.90;;;;;;2106002;28;20024;-69
2021/07/05 04:03:42;;;;;;;2.10;1.70;;;17.60;99.90;;;;;;2106529;28;20074;-68
2021/07/05 04:04:42;;;;;;;1.52;1.42;;;17.70;99.90;;;;;;2106469;28;20073;-68
2021/07/05 04:05:43;;;;;;;1.80;1.33;;;17.70;99.90;;;;;;2106432;28;20027;-68
2021/07/05 04:06:43;;;;;;;2.33;1.10;;;17.70;99.90;;;;;;2106429;28;20024;-68
2021/07/05 04:07:44;;;;;;;1.90;1.15;;;17.80;99.90;;;;;;2106400;28;20027;-68
2021/07/05 04:08:45;;;;;;;1.42;1.30;;;17.80;99.90;;;;;;2106267;28;20044;-68
2021/07/05 04:09:46;;;;;;;1.65;1.42;;;17.90;99.90;;;;;;2106569;28;20487;-68
2021/07/05 04:10:48;;;;;;;3.58;1.38;;;17.90;99.90;;;;;;2106311;28;20085;-68
2021/07/05 04:11:48;;;;;;;1.73;1.60;;;17.90;99.90;;;;;;2105856;28;20103;-68
2021/07/05 04:12:49;;;;;;;1.88;1.25;;;17.90;99.90;;;;;;2106324;28;20024;-68
2021/07/05 04:13:49;;;;;;;2.33;1.15;;;18.00;99.90;;;;;;2106427;28;20032;-68
2021/07/05 04:14:50;;;;;;;3.88;1.38;;;18.00;99.90;;;;;;2106396;28;20024;-68
2021/07/05 04:15:51;;;;;;;1.55;1.30;;;18.10;99.90;;;;;;2106395;28;20024;-68
2021/07/05 04:16:51;;;;;;;2.28;1.60;;;18.10;99.90;;;;;;2106066;28;20020;-68
2021/07/05 04:17:52;;;;;;;1.58;1.40;;;18.20;99.90;;;;;;2106562;28;20114;-68
2021/07/05 04:18:53;;;;;;;4.78;1.40;;;18.20;99.90;;;;;;2106307;28;20040;-68
2021/07/05 04:19:53;;;;;;;3.50;1.42;;;18.20;99.90;;;;;;2106494;28;20029;-68
2021/07/05 04:20:54;;;;;;;2.83;1.38;;;18.30;99.90;;;;;;2106420;28;20058;-68
2021/07/05 04:21:55;;;;;;;3.58;1.02;;;18.30;99.90;;;;;;2105867;28;20023;-68
2021/07/05 04:22:55;;;;;;;2.25;1.20;;;18.30;99.90;;;;;;2106293;28;20073;-68
2021/07/05 04:23:56;;;;;;;2.33;1.35;;;18.30;99.90;;;;;;2106483;28;20091;-68
2021/07/05 04:24:57;;;;;;;3.30;1.35;;;18.40;99.90;;;;;;2106126;28;20104;-68
2021/07/05 04:25:59;;;;;;;3.75;1.30;;;18.40;99.90;;;;;;2106161;28;20099;-68
2021/07/05 04:26:59;;;;;;;2.40;1.42;;;18.40;99.90;;;;;;2106112;28;20123;-68
2021/07/05 04:28:00;;;;;;;2.40;1.35;;;18.40;99.90;;;;;;2106397;28;20572;-68
2021/07/05 04:29:01;;;;;;;3.40;1.20;;;18.50;99.90;;;;;;2106025;28;20020;-68
2021/07/05 04:30:04;;;;;;;2.10;1.30;;;18.40;99.90;;;;;;2106349;28;20058;-68
2021/07/05 04:31:05;;;;;;;1.83;1.10;;;18.50;99.90;;;;;;2106064;28;20107;-68
2021/07/05 04:32:07;;;;;;;2.17;1.30;;;18.50;99.90;;;;;;2105816;28;20042;-68
2021/07/05 04:33:08;;;;;;;3.72;1.50;;;18.50;99.90;;;;;;2106153;28;20028;-68
2021/07/05 04:34:08;;;;;;;1.30;1.10;;;18.60;99.90;;;;;;2106457;28;20016;-68
2021/07/05 04:35:13;;;;;;;2.03;1.38;;;18.60;99.90;;;;;;2106083;28;20523;-68
2021/07/05 04:36:13;;;;;;;2.72;1.50;;;18.60;99.90;;;;;;2106196;28;20012;-68
2021/07/05 04:37:14;;;;;;;3.70;1.42;;;18.60;99.90;;;;;;2106043;28;20024;-68
2021/07/05 04:38:15;;;;;;;1.83;1.15;;;18.70;99.90;;;;;;2106115;28;20052;-68
2021/07/05 04:39:15;;;;;;;1.35;1.00;;;18.70;99.90;;;;;;2105970;28;20043;-68
2021/07/05 04:40:19;;;;;;;3.75;1.23;;;18.70;99.90;;;;;;2106283;28;20036;-68
2021/07/05 04:41:19;;;;;;;1.48;1.30;;;18.70;99.90;;;;;;2106152;28;20594;-68
2021/07/05 04:42:20;;;;;;;3.15;1.30;;;18.70;99.90;;;;;;2105820;28;20107;-68
2021/07/05 04:43:20;;;;;;;2.03;1.30;;;18.70;99.90;;;;;;2106274;28;20111;-68
2021/07/05 04:44:22;;;;;;;1.27;1.17;;;18.80;99.90;;;;;;2106126;28;20028;-68
2021/07/05 04:45:28;;;;;;;2.45;1.40;;;18.80;99.90;;;;;;2106126;28;20028;-68
2021/07/05 04:46:30;;;;;;;2.30;1.23;;;18.80;99.90;;;;;;2106167;28;20024;-68
2021/07/05 04:47:30;;;;;;;2.63;1.30;;;18.80;99.90;;;;;;2105678;28;20081;-68
2021/07/05 04:48:32;;;;;;;2.70;1.40;;;18.80;99.90;;;;;;2105345;28;20070;-68
2021/07/05 04:49:32;;;;;;;4.30;1.33;;;18.80;99.90;;;;;;2105380;28;20024;-68
2021/07/05 04:50:34;;;;;;;2.42;1.30;;;18.80;99.90;;;;;;2105380;28;20020;-68
2021/07/05 04:51:34;;;;;;;1.80;1.20;;;18.80;99.90;;;;;;2105479;28;20055;-68
2021/07/05 04:52:35;;;;;;;1.35;1.10;;;18.80;99.90;;;;;;2106068;28;20020;-68
2021/07/05 04:53:36;;;;;;;2.55;1.42;;;18.80;99.90;;;;;;2106411;28;20402;-68
2021/07/05 04:54:37;;;;;;;1.48;1.38;;;18.80;99.90;;;;;;2105920;28;20024;-68
2021/07/05 04:55:37;;;;;;;1.65;1.30;;;18.80;99.90;;;;;;2106195;28;20036;-68
2021/07/05 04:56:38;;;;;;;1.90;1.40;;;18.80;99.90;;;;;;2105915;28;20016;-68
2021/07/05 04:57:41;;;;;;;4.43;1.30;;;18.80;99.90;;;;;;2105762;28;20031;-68
2021/07/05 04:58:41;;;;;;;1.75;1.63;;;18.80;99.90;;;;;;2105876;28;20111;-68
2021/07/05 04:59:42;;;;;;;2.50;1.30;;;18.80;99.90;;;;;;2105425;28;20028;-68
2021/07/05 05:00:43;;;;;;;3.90;1.30;;;18.90;99.90;;;;;;2105306;28;20020;-68
2021/07/05 05:01:46;;;;;;;3.42;1.60;;;18.90;99.90;;;;;;2105504;28;20020;-68
2021/07/05 05:02:47;;;;;;;4.22;1.83;;;18.90;99.90;;;;;;2105915;28;20055;-68
2021/07/05 05:03:48;;;;;;;4.53;2.00;;;18.90;99.90;;;;;;2105314;28;20479;-69
2021/07/05 05:04:51;;;;;;;8.90;2.72;;;18.90;99.90;;;;;;2105123;28;20081;-68
2021/07/05 05:05:52;;;;;;;6.10;2.25;;;18.90;99.90;;;;;;2105718;28;20535;-69
2021/07/05 05:06:52;;;;;;;7.50;3.10;;;18.90;99.90;;;;;;2105696;28;20379;-68
2021/07/05 05:07:53;;;;;;;5.20;2.22;;;18.90;99.90;;;;;;2106205;28;20028;-68
2021/07/05 05:08:54;;;;;;;7.10;2.45;;;18.90;99.90;;;;;;2105985;28;20020;-68
2021/07/05 05:10:00;;;;;;;4.82;2.20;;;18.80;99.90;;;;;;2106044;28;20073;-69
2021/07/05 05:11:01;;;;;;;3.88;2.25;;;18.80;99.90;;;;;;2105938;28;20020;-69
2021/07/05 05:12:01;;;;;;;5.18;2.72;;;18.80;99.90;;;;;;2105538;28;20024;-68
2021/07/05 05:13:02;;;;;;;3.85;1.80;;;18.80;99.90;;;;;;2105978;28;20131;-69
2021/07/05 05:14:03;;;;;;;3.35;2.20;;;18.80;99.90;;;;;;2105979;28;20020;-68
2021/07/05 05:15:06;;;;;;;6.68;2.47;;;18.70;99.90;;;;;;2105685;28;20016;-68
2021/07/05 05:16:07;;;;;;;8.27;2.47;;;18.70;99.90;;;;;;2106011;28;20009;-69
2021/07/05 05:17:07;;;;;;;3.40;1.70;;;18.70;99.90;;;;;;2105523;28;20521;-68
2021/07/05 05:18:08;;;;;;;5.18;2.13;;;18.70;99.90;;;;;;2106010;28;20024;-68
2021/07/05 05:19:08;;;;;;;3.25;1.48;;;18.60;99.90;;;;;;2105752;28;20052;-68